sensor_id;sensor_type;location;lat;lon;timestamp;temperature;humidity
52555;DHT22;38455;52.710;6.502;2022-07-22T00:00:32;16.60;99.90
52555;DHT22;38455;52.710;6.502;2022-07-22T00:02:58;16.60;99.90
52555;DHT22;38455;52.710;6.502;2022-07-22T00:05:23;16.60;99.90
52555;DHT22;38455;52.710;6.502;2022-07-22T00:07:49;16.60;99.90
52555;DHT22;38455;52.710;6.502;2022-07-22T00:10:14;16.50;99.90
52555;DHT22;38455;52.710;6.502;2022-07-22T00:12:40;16.60;99.90
52555;DHT22;38455;52.710;6.502;2022-07-22T00:15:07;16.60;99.90
52555;DHT22;38455;52.710;6.502;2022-07-22T00:17:33;16.60;99.90
52555;DHT22;38455;52.710;6.502;2022-07-22T00:20:03;16.70;99.90
52555;DHT22;38455;52.710;6.502;2022-07-22T00:22:29;16.70;99.90
52555;DHT22;38455;52.710;6.502;2022-07-22T00:24:54;16.80;99.90
52555;DHT22;38455;52.710;6.502;2022-07-22T00:27:20;16.80;99.90
52555;DHT22;38455;52.710;6.502;2022-07-22T00:29:45;16.80;99.90
52555;DHT22;38455;52.710;6.502;2022-07-22T00:32:11;16.80;99.90
52555;DHT22;38455;52.710;6.502;2022-07-22T00:34:37;16.80;99.90
52555;DHT22;38455;52.710;6.502;2022-07-22T00:37:03;16.80;99.90
52555;DHT22;38455;52.710;6.502;2022-07-22T00:39:30;16.80;99.90
52555;DHT22;38455;52.710;6.502;2022-07-22T00:41:56;16.80;99.90
52555;DHT22;38455;52.710;6.502;2022-07-22T00:44:21;16.90;99.90
52555;DHT22;38455;52.710;6.502;2022-07-22T00:46:47;16.80;99.90
52555;DHT22;38455;52.710;6.502;2022-07-22T00:49:13;16.80;99.90
52555;DHT22;38455;52.710;6.502;2022-07-22T00:51:39;16.80;99.90
52555;DHT22;38455;52.710;6.502;2022-07-22T00:54:06;16.90;99.90
52555;DHT22;38455;52.710;6.502;2022-07-22T00:56:32;16.80;99.90
52555;DHT22;38455;52.710;6.502;2022-07-22T00:59:03;16.80;99.90
52555;DHT22;38455;52.710;6.502;2022-07-22T01:01:30;16.70;99.90
52555;DHT22;38455;52.710;6.502;2022-07-22T01:03:55;16.70;99.90
52555;DHT22;38455;52.710;6.502;2022-07-22T01:06:21;16.70;99.90
52555;DHT22;38455;52.710;6.502;2022-07-22T01:08:48;16.70;99.90
52555;DHT22;38455;52.710;6.502;2022-07-22T01:11:16;16.60;99.90
52555;DHT22;38455;52.710;6.502;2022-07-22T01:13:43;16.70;99.90
52555;DHT22;38455;52.710;6.502;2022-07-22T01:16:09;16.70;99.90
52555;DHT22;38455;52.710;6.502;2022-07-22T01:18:37;16.60;99.90
52555;DHT22;38455;52.710;6.502;2022-07-22T01:21:04;16.60;99.90
52555;DHT22;38455;52.710;6.502;2022-07-22T01:23:30;16.60;99.90
52555;DHT22;38455;52.710;6.502;2022-07-22T01:25:56;16.60;99.90
52555;DHT22;38455;52.710;6.502;2022-07-22T01:28:22;16.60;99.90
52555;DHT22;38455;52.710;6.502;2022-07-22T01:30:48;16.60;99.90
52555;DHT22;38455;52.710;6.502;2022-07-22T01:33:16;16.60;99.90
52555;DHT22;38455;52.710;6.502;2022-07-22T01:35:42;16.60;99.90
52555;DHT22;38455;52.710;6.502;2022-07-22T01:38:09;16.60;99.90
52555;DHT22;38455;52.710;6.502;2022-07-22T01:40:34;16.50;99.90
52555;DHT22;38455;52.710;6.502;2022-07-22T01:43:00;16.40;99.90
52555;DHT22;38455;52.710;6.502;2022-07-22T01:45:26;16.40;99.90
52555;DHT22;38455;52.710;6.502;2022-07-22T01:47:52;16.30;99.90
52555;DHT22;38455;52.710;6.502;2022-07-22T01:50:18;16.30;99.90
52555;DHT22;38455;52.710;6.502;2022-07-22T01:52:43;16.40;99.90
52555;DHT22;38455;52.710;6.502;2022-07-22T01:55:10;16.40;99.90
52555;DHT22;38455;52.710;6.502;2022-07-22T01:57:36;16.30;99.90
52555;DHT22;38455;52.710;6.502;2022-07-22T02:00:05;16.40;99.90
52555;DHT22;38455;52.710;6.502;2022-07-22T02:02:31;16.30;99.90
52555;DHT22;38455;52.710;6.502;2022-07-22T02:04:57;16.30;99.90
52555;DHT22;38455;52.710;6.502;2022-07-22T02:07:22;16.40;99.90
52555;DHT22;38455;52.710;6.502;2022-07-22T02:09:49;16.40;99.90
52555;DHT22;38455;52.710;6.502;2022-07-22T02:12:15;16.40;99.90
52555;DHT22;38455;52.710;6.502;2022-07-22T02:14:41;16.40;99.90
52555;DHT22;38455;52.710;6.502;2022-07-22T02:17:06;16.40;99.90
52555;DHT22;38455;52.710;6.502;2022-07-22T02:19:32;16.50;99.90
52555;DHT22;38455;52.710;6.502;2022-07-22T02:21:58;16.50;99.90
52555;DHT22;38455;52.710;6.502;2022-07-22T02:24:23;16.50;99.90
52555;DHT22;38455;52.710;6.502;2022-07-22T02:26:49;16.50;99.90
52555;DHT22;38455;52.710;6.502;2022-07-22T02:29:15;16.50;99.90
52555;DHT22;38455;52.710;6.502;2022-07-22T02:31:41;16.40;99.90
52555;DHT22;38455;52.710;6.502;2022-07-22T02:34:07;16.40;99.90
52555;DHT22;38455;52.710;6.502;2022-07-22T02:36:32;16.40;99.90
52555;DHT22;38455;52.710;6.502;2022-07-22T02:38:58;16.30;99.90
52555;DHT22;38455;52.710;6.502;2022-07-22T02:41:24;16.30;99.90
52555;DHT22;38455;52.710;6.502;2022-07-22T02:43:49;16.40;99.90
52555;DHT22;38455;52.710;6.502;2022-07-22T02:46:20;16.30;99.90
52555;DHT22;38455;52.710;6.502;2022-07-22T02:48:46;16.30;99.90
52555;DHT22;38455;52.710;6.502;2022-07-22T02:51:11;16.30;99.90
52555;DHT22;38455;52.710;6.502;2022-07-22T02:53:37;16.30;99.90
52555;DHT22;38455;52.710;6.502;2022-07-22T02:56:03;16.40;99.90
52555;DHT22;38455;52.710;6.502;2022-07-22T02:58:29;16.30;99.90
52555;DHT22;38455;52.710;6.502;2022-07-22T03:00:54;16.30;99.90
52555;DHT22;38455;52.710;6.502;2022-07-22T03:03:20;16.30;99.90
52555;DHT22;38455;52.710;6.502;2022-07-22T03:05:45;16.30;99.90
52555;DHT22;38455;52.710;6.502;2022-07-22T03:08:11;16.30;99.90
52555;DHT22;38455;52.710;6.502;2022-07-22T03:10:37;16.40;99.90
52555;DHT22;38455;52.710;6.502;2022-07-22T03:13:03;16.40;99.90
52555;DHT22;38455;52.710;6.502;2022-07-22T03:15:28;16.40;99.90
52555;DHT22;38455;52.710;6.502;2022-07-22T03:17:54;16.40;99.90
52555;DHT22;38455;52.710;6.502;2022-07-22T03:20:20;16.40;99.90
52555;DHT22;38455;52.710;6.502;2022-07-22T03:22:45;16.40;99.90
52555;DHT22;38455;52.710;6.502;2022-07-22T03:25:11;16.40;99.90
52555;DHT22;38455;52.710;6.502;2022-07-22T03:27:37;16.40;99.90
52555;DHT22;38455;52.710;6.502;2022-07-22T03:30:04;16.40;99.90
52555;DHT22;38455;52.710;6.502;2022-07-22T03:32:30;16.40;99.90
52555;DHT22;38455;52.710;6.502;2022-07-22T03:34:56;16.40;99.90
52555;DHT22;38455;52.710;6.502;2022-07-22T03:37:21;16.40;99.90
52555;DHT22;38455;52.710;6.502;2022-07-22T03:39:47;16.40;99.90
52555;DHT22;38455;52.710;6.502;2022-07-22T03:42:13;16.40;99.90
52555;DHT22;38455;52.710;6.502;2022-07-22T03:44:39;16.40;99.90
52555;DHT22;38455;52.710;6.502;2022-07-22T03:47:04;16.40;99.90
52555;DHT22;38455;52.710;6.502;2022-07-22T03:49:31;16.40;99.90
52555;DHT22;38455;52.710;6.502;2022-07-22T03:51:57;16.40;99.90
52555;DHT22;38455;52.710;6.502;2022-07-22T03:54:23;16.40;99.90
52555;DHT22;38455;52.710;6.502;2022-07-22T03:56:49;16.40;99.90
52555;DHT22;38455;52.710;6.502;2022-07-22T03:59:16;16.30;99.90
52555;DHT22;38455;52.710;6.502;2022-07-22T04:01:41;16.30;99.90
52555;DHT22;38455;52.710;6.502;2022-07-22T04:04:08;16.30;99.90
52555;DHT22;38455;52.710;6.502;2022-07-22T04:06:33;16.40;99.90
52555;DHT22;38455;52.710;6.502;2022-07-22T04:08:59;16.40;99.90
52555;DHT22;38455;52.710;6.502;2022-07-22T04:11:25;16.40;99.90
52555;DHT22;38455;52.710;6.502;2022-07-22T04:13:51;16.40;99.90
52555;DHT22;38455;52.710;6.502;2022-07-22T04:16:17;16.40;99.90
52555;DHT22;38455;52.710;6.502;2022-07-22T04:18:43;16.40;99.90
52555;DHT22;38455;52.710;6.502;2022-07-22T04:21:08;16.40;99.90
52555;DHT22;38455;52.710;6.502;2022-07-22T04:23:34;16.40;99.90
52555;DHT22;38455;52.710;6.502;2022-07-22T04:26:00;16.40;99.90
52555;DHT22;38455;52.710;6.502;2022-07-22T04:28:25;16.40;99.90
52555;DHT22;38455;52.710;6.502;2022-07-22T04:30:51;16.40;99.90
52555;DHT22;38455;52.710;6.502;2022-07-22T04:33:16;16.50;99.90
52555;DHT22;38455;52.710;6.502;2022-07-22T04:35:42;16.50;99.90
52555;DHT22;38455;52.710;6.502;2022-07-22T04:38:09;16.50;99.90
52555;DHT22;38455;52.710;6.502;2022-07-22T04:40:34;16.50;99.90
52555;DHT22;38455;52.710;6.502;2022-07-22T04:43:00;16.50;99.90
52555;DHT22;38455;52.710;6.502;2022-07-22T04:45:26;16.50;99.90
52555;DHT22;38455;52.710;6.502;2022-07-22T04:47:52;16.50;99.90
52555;DHT22;38455;52.710;6.502;2022-07-22T04:50:17;16.50;99.90
52555;DHT22;38455;52.710;6.502;2022-07-22T04:52:43;16.50;99.90
52555;DHT22;38455;52.710;6.502;2022-07-22T04:55:09;16.50;99.90
52555;DHT22;38455;52.710;6.502;2022-07-22T04:57:35;16.50;99.90
52555;DHT22;38455;52.710;6.502;2022-07-22T05:00:01;16.60;99.90
52555;DHT22;38455;52.710;6.502;2022-07-22T05:02:27;16.60;99.90
52555;DHT22;38455;52.710;6.502;2022-07-22T05:04:52;16.60;99.90
52555;DHT22;38455;52.710;6.502;2022-07-22T05:07:18;16.60;99.90
52555;DHT22;38455;52.710;6.502;2022-07-22T05:09:44;16.60;99.90
52555;DHT22;38455;52.710;6.502;2022-07-22T05:12:09;16.60;99.90
52555;DHT22;38455;52.710;6.502;2022-07-22T05:14:35;16.60;99.90
52555;DHT22;38455;52.710;6.502;2022-07-22T05:17:01;16.60;99.90
52555;DHT22;38455;52.710;6.502;2022-07-22T05:19:26;16.60;99.90
52555;DHT22;38455;52.710;6.502;2022-07-22T05:21:53;16.60;99.90
52555;DHT22;38455;52.710;6.502;2022-07-22T05:24:19;16.60;99.90
52555;DHT22;38455;52.710;6.502;2022-07-22T05:26:44;16.60;99.90
52555;DHT22;38455;52.710;6.502;2022-07-22T05:29:10;16.60;99.90
52555;DHT22;38455;52.710;6.502;2022-07-22T05:31:35;16.70;99.90
52555;DHT22;38455;52.710;6.502;2022-07-22T05:34:01;16.70;99.90
52555;DHT22;38455;52.710;6.502;2022-07-22T05:36:28;16.80;99.90
52555;DHT22;38455;52.710;6.502;2022-07-22T05:38:56;16.80;99.90
52555;DHT22;38455;52.710;6.502;2022-07-22T05:41:22;16.90;99.90
52555;DHT22;38455;52.710;6.502;2022-07-22T05:43:48;16.90;99.90
52555;DHT22;38455;52.710;6.502;2022-07-22T05:46:14;16.90;99.90
52555;DHT22;38455;52.710;6.502;2022-07-22T05:48:39;16.90;99.90
52555;DHT22;38455;52.710;6.502;2022-07-22T05:51:11;17.00;99.90
52555;DHT22;38455;52.710;6.502;2022-07-22T05:53:36;17.00;99.90
52555;DHT22;38455;52.710;6.502;2022-07-22T05:56:02;17.00;99.90
52555;DHT22;38455;52.710;6.502;2022-07-22T05:58:28;17.00;99.90
52555;DHT22;38455;52.710;6.502;2022-07-22T06:00:53;17.00;99.90
52555;DHT22;38455;52.710;6.502;2022-07-22T06:03:19;17.10;99.90
52555;DHT22;38455;52.710;6.502;2022-07-22T06:05:45;17.10;99.90
52555;DHT22;38455;52.710;6.502;2022-07-22T06:08:10;17.10;99.90
52555;DHT22;38455;52.710;6.502;2022-07-22T06:10:36;17.20;99.90
52555;DHT22;38455;52.710;6.502;2022-07-22T06:13:02;17.10;99.90
52555;DHT22;38455;52.710;6.502;2022-07-22T06:15:27;17.20;99.90
52555;DHT22;38455;52.710;6.502;2022-07-22T06:17:53;17.20;99.90
52555;DHT22;38455;52.710;6.502;2022-07-22T06:20:19;17.30;99.90
52555;DHT22;38455;52.710;6.502;2022-07-22T06:22:44;17.40;99.90
52555;DHT22;38455;52.710;6.502;2022-07-22T06:25:10;17.40;99.90
52555;DHT22;38455;52.710;6.502;2022-07-22T06:27:36;17.50;99.90
52555;DHT22;38455;52.710;6.502;2022-07-22T06:30:01;17.60;99.90
52555;DHT22;38455;52.710;6.502;2022-07-22T06:32:28;17.60;99.90
52555;DHT22;38455;52.710;6.502;2022-07-22T06:34:54;17.60;99.90
52555;DHT22;38455;52.710;6.502;2022-07-22T06:37:19;17.70;99.90
52555;DHT22;38455;52.710;6.502;2022-07-22T06:39:45;17.80;99.90
52555;DHT22;38455;52.710;6.502;2022-07-22T06:42:13;17.80;99.90
52555;DHT22;38455;52.710;6.502;2022-07-22T06:44:39;17.90;99.90
52555;DHT22;38455;52.710;6.502;2022-07-22T06:47:05;18.00;99.90
52555;DHT22;38455;52.710;6.502;2022-07-22T06:49:30;18.00;99.90
52555;DHT22;38455;52.710;6.502;2022-07-22T06:51:56;18.00;99.90
52555;DHT22;38455;52.710;6.502;2022-07-22T06:54:22;18.00;99.90
52555;DHT22;38455;52.710;6.502;2022-07-22T06:56:47;18.10;99.90
52555;DHT22;38455;52.710;6.502;2022-07-22T06:59:13;18.10;99.90
52555;DHT22;38455;52.710;6.502;2022-07-22T07:01:39;18.20;99.90
52555;DHT22;38455;52.710;6.502;2022-07-22T07:04:04;18.30;99.90
52555;DHT22;38455;52.710;6.502;2022-07-22T07:06:30;18.40;99.90
52555;DHT22;38455;52.710;6.502;2022-07-22T07:08:56;18.40;99.90
52555;DHT22;38455;52.710;6.502;2022-07-22T07:11:23;18.40;99.90
52555;DHT22;38455;52.710;6.502;2022-07-22T07:13:48;18.40;99.90
52555;DHT22;38455;52.710;6.502;2022-07-22T07:16:14;18.40;99.90
52555;DHT22;38455;52.710;6.502;2022-07-22T07:18:40;18.40;99.90
52555;DHT22;38455;52.710;6.502;2022-07-22T07:21:06;18.30;99.90
52555;DHT22;38455;52.710;6.502;2022-07-22T07:23:31;18.40;99.90
52555;DHT22;38455;52.710;6.502;2022-07-22T07:25:57;18.50;99.90
52555;DHT22;38455;52.710;6.502;2022-07-22T07:28:22;18.50;99.90
52555;DHT22;38455;52.710;6.502;2022-07-22T07:30:49;18.60;99.90
52555;DHT22;38455;52.710;6.502;2022-07-22T07:33:15;18.60;99.90
52555;DHT22;38455;52.710;6.502;2022-07-22T07:35:40;18.60;99.90
52555;DHT22;38455;52.710;6.502;2022-07-22T07:38:06;18.70;99.90
52555;DHT22;38455;52.710;6.502;2022-07-22T07:40:32;18.80;99.90
52555;DHT22;38455;52.710;6.502;2022-07-22T07:43:01;18.80;99.90
52555;DHT22;38455;52.710;6.502;2022-07-22T07:45:27;18.80;99.90
52555;DHT22;38455;52.710;6.502;2022-07-22T07:47:53;19.00;99.90
52555;DHT22;38455;52.710;6.502;2022-07-22T07:50:18;19.30;99.90
52555;DHT22;38455;52.710;6.502;2022-07-22T07:52:45;19.50;99.90
52555;DHT22;38455;52.710;6.502;2022-07-22T07:55:13;19.70;99.90
52555;DHT22;38455;52.710;6.502;2022-07-22T07:57:39;19.90;99.90
52555;DHT22;38455;52.710;6.502;2022-07-22T08:00:08;20.10;99.90
52555;DHT22;38455;52.710;6.502;2022-07-22T08:02:34;20.20;99.90
52555;DHT22;38455;52.710;6.502;2022-07-22T08:04:59;20.30;99.90
52555;DHT22;38455;52.710;6.502;2022-07-22T08:07:27;20.30;99.90
52555;DHT22;38455;52.710;6.502;2022-07-22T08:09:53;20.50;99.90
52555;DHT22;38455;52.710;6.502;2022-07-22T08:12:18;20.50;99.90
52555;DHT22;38455;52.710;6.502;2022-07-22T08:14:44;20.50;99.90
52555;DHT22;38455;52.710;6.502;2022-07-22T08:17:09;20.60;99.90
52555;DHT22;38455;52.710;6.502;2022-07-22T08:19:35;20.60;99.90
52555;DHT22;38455;52.710;6.502;2022-07-22T08:22:01;20.60;99.90
52555;DHT22;38455;52.710;6.502;2022-07-22T08:24:26;20.50;99.90
52555;DHT22;38455;52.710;6.502;2022-07-22T08:26:52;20.50;99.90
52555;DHT22;38455;52.710;6.502;2022-07-22T08:29:18;20.40;99.90
52555;DHT22;38455;52.710;6.502;2022-07-22T08:31:44;20.40;99.90
52555;DHT22;38455;52.710;6.502;2022-07-22T08:34:09;20.40;99.90
52555;DHT22;38455;52.710;6.502;2022-07-22T08:36:35;20.20;99.90
52555;DHT22;38455;52.710;6.502;2022-07-22T08:39:01;20.20;99.90
52555;DHT22;38455;52.710;6.502;2022-07-22T08:41:27;20.20;99.90
52555;DHT22;38455;52.710;6.502;2022-07-22T08:43:52;20.20;99.90
52555;DHT22;38455;52.710;6.502;2022-07-22T08:46:18;20.20;99.90
52555;DHT22;38455;52.710;6.502;2022-07-22T08:48:45;20.20;99.90
52555;DHT22;38455;52.710;6.502;2022-07-22T08:51:11;20.20;99.90
52555;DHT22;38455;52.710;6.502;2022-07-22T08:53:37;20.30;99.90
52555;DHT22;38455;52.710;6.502;2022-07-22T08:56:03;20.10;99.90
52555;DHT22;38455;52.710;6.502;2022-07-22T08:58:28;20.10;99.90
52555;DHT22;38455;52.710;6.502;2022-07-22T09:01:09;20.00;99.90
52555;DHT22;38455;52.710;6.502;2022-07-22T09:03:48;20.00;99.90
52555;DHT22;38455;52.710;6.502;2022-07-22T09:06:16;20.00;99.90
52555;DHT22;38455;52.710;6.502;2022-07-22T09:08:52;20.10;99.90
52555;DHT22;38455;52.710;6.502;2022-07-22T09:11:19;20.20;99.90
52555;DHT22;38455;52.710;6.502;2022-07-22T09:13:46;20.30;99.90
52555;DHT22;38455;52.710;6.502;2022-07-22T09:16:12;20.30;99.90
52555;DHT22;38455;52.710;6.502;2022-07-22T09:18:52;20.20;99.90
52555;DHT22;38455;52.710;6.502;2022-07-22T09:21:18;20.20;99.90
52555;DHT22;38455;52.710;6.502;2022-07-22T09:23:44;20.10;99.90
52555;DHT22;38455;52.710;6.502;2022-07-22T09:26:32;20.10;99.90
52555;DHT22;38455;52.710;6.502;2022-07-22T09:28:59;20.20;99.90
52555;DHT22;38455;52.710;6.502;2022-07-22T09:31:33;20.10;99.90
52555;DHT22;38455;52.710;6.502;2022-07-22T09:33:59;20.20;99.90
52555;DHT22;38455;52.710;6.502;2022-07-22T09:36:25;20.10;99.90
52555;DHT22;38455;52.710;6.502;2022-07-22T09:38:52;20.00;99.90
52555;DHT22;38455;52.710;6.502;2022-07-22T09:41:18;20.00;99.90
52555;DHT22;38455;52.710;6.502;2022-07-22T09:43:44;20.00;99.90
52555;DHT22;38455;52.710;6.502;2022-07-22T09:46:10;20.00;99.90
52555;DHT22;38455;52.710;6.502;2022-07-22T09:48:39;20.00;99.90
52555;DHT22;38455;52.710;6.502;2022-07-22T09:51:05;20.00;99.90
52555;DHT22;38455;52.710;6.502;2022-07-22T09:53:32;20.10;99.90
52555;DHT22;38455;52.710;6.502;2022-07-22T09:56:00;20.10;99.90
52555;DHT22;38455;52.710;6.502;2022-07-22T09:58:26;20.00;99.90
52555;DHT22;38455;52.710;6.502;2022-07-22T10:00:53;20.00;99.90
52555;DHT22;38455;52.710;6.502;2022-07-22T10:03:27;20.00;99.90
52555;DHT22;38455;52.710;6.502;2022-07-22T10:05:53;20.20;99.90
52555;DHT22;38455;52.710;6.502;2022-07-22T10:08:19;20.30;99.90
52555;DHT22;38455;52.710;6.502;2022-07-22T10:10:45;20.40;99.90
52555;DHT22;38455;52.710;6.502;2022-07-22T10:13:11;20.20;99.90
52555;DHT22;38455;52.710;6.502;2022-07-22T10:15:37;20.20;99.90
52555;DHT22;38455;52.710;6.502;2022-07-22T10:18:14;20.10;99.90
52555;DHT22;38455;52.710;6.502;2022-07-22T10:20:40;20.10;99.90
52555;DHT22;38455;52.710;6.502;2022-07-22T10:23:07;20.30;99.90
52555;DHT22;38455;52.710;6.502;2022-07-22T10:25:52;20.40;99.90
52555;DHT22;38455;52.710;6.502;2022-07-22T10:28:27;20.60;99.90
52555;DHT22;38455;52.710;6.502;2022-07-22T10:31:07;20.70;99.90
52555;DHT22;38455;52.710;6.502;2022-07-22T10:33:40;20.90;99.90
52555;DHT22;38455;52.710;6.502;2022-07-22T10:36:06;21.10;99.90
52555;DHT22;38455;52.710;6.502;2022-07-22T10:38:32;21.40;99.90
52555;DHT22;38455;52.710;6.502;2022-07-22T10:41:05;21.60;99.90
52555;DHT22;38455;52.710;6.502;2022-07-22T10:46:09;21.90;99.90
52555;DHT22;38455;52.710;6.502;2022-07-22T10:51:10;22.50;99.90
52555;DHT22;38455;52.710;6.502;2022-07-22T10:58:53;23.10;99.90
52555;DHT22;38455;52.710;6.502;2022-07-22T11:01:22;23.00;99.90
52555;DHT22;38455;52.710;6.502;2022-07-22T11:03:48;22.80;99.90
52555;DHT22;38455;52.710;6.502;2022-07-22T11:06:19;22.80;99.90
52555;DHT22;38455;52.710;6.502;2022-07-22T11:08:48;22.60;99.90
52555;DHT22;38455;52.710;6.502;2022-07-22T11:11:14;22.40;99.90
52555;DHT22;38455;52.710;6.502;2022-07-22T11:13:42;22.20;99.90
52555;DHT22;38455;52.710;6.502;2022-07-22T11:16:16;21.90;99.90
52555;DHT22;38455;52.710;6.502;2022-07-22T11:18:52;21.80;99.90
52555;DHT22;38455;52.710;6.502;2022-07-22T11:21:20;21.70;99.90
52555;DHT22;38455;52.710;6.502;2022-07-22T11:23:48;21.40;99.90
52555;DHT22;38455;52.710;6.502;2022-07-22T11:26:17;21.20;99.90
52555;DHT22;38455;52.710;6.502;2022-07-22T11:28:44;21.20;99.90
52555;DHT22;38455;52.710;6.502;2022-07-22T11:31:13;20.90;99.90
52555;DHT22;38455;52.710;6.502;2022-07-22T11:33:39;20.80;99.90
52555;DHT22;38455;52.710;6.502;2022-07-22T11:36:07;20.70;99.90
52555;DHT22;38455;52.710;6.502;2022-07-22T11:41:11;20.40;99.90
52555;DHT22;38455;52.710;6.502;2022-07-22T11:43:45;20.30;99.90
52555;DHT22;38455;52.710;6.502;2022-07-22T11:46:12;20.30;99.90
52555;DHT22;38455;52.710;6.502;2022-07-22T11:48:39;20.40;99.90
52555;DHT22;38455;52.710;6.502;2022-07-22T11:51:06;20.20;99.90
52555;DHT22;38455;52.710;6.502;2022-07-22T11:53:32;20.30;99.90
52555;DHT22;38455;52.710;6.502;2022-07-22T11:56:02;20.30;99.90
52555;DHT22;38455;52.710;6.502;2022-07-22T11:58:48;20.20;99.90
52555;DHT22;38455;52.710;6.502;2022-07-22T12:01:22;20.20;99.90
52555;DHT22;38455;52.710;6.502;2022-07-22T12:03:51;20.10;99.90
52555;DHT22;38455;52.710;6.502;2022-07-22T12:06:18;20.00;99.90
52555;DHT22;38455;52.710;6.502;2022-07-22T12:08:46;20.10;99.90
52555;DHT22;38455;52.710;6.502;2022-07-22T12:11:15;20.10;99.90
52555;DHT22;38455;52.710;6.502;2022-07-22T12:13:45;20.30;99.90
52555;DHT22;38455;52.710;6.502;2022-07-22T12:16:26;20.40;99.90
52555;DHT22;38455;52.710;6.502;2022-07-22T12:18:57;20.50;99.90
52555;DHT22;38455;52.710;6.502;2022-07-22T12:21:25;20.60;99.90
52555;DHT22;38455;52.710;6.502;2022-07-22T12:23:56;20.60;99.90
52555;DHT22;38455;52.710;6.502;2022-07-22T12:26:45;20.80;99.90
52555;DHT22;38455;52.710;6.502;2022-07-22T12:29:31;21.10;99.90
52555;DHT22;38455;52.710;6.502;2022-07-22T12:32:10;21.30;99.90
52555;DHT22;38455;52.710;6.502;2022-07-22T12:34:47;21.40;99.90
52555;DHT22;38455;52.710;6.502;2022-07-22T12:37:25;21.40;99.90
52555;DHT22;38455;52.710;6.502;2022-07-22T12:40:10;21.60;99.90
52555;DHT22;38455;52.710;6.502;2022-07-22T12:42:38;21.70;99.90
52555;DHT22;38455;52.710;6.502;2022-07-22T12:45:18;21.90;99.90
52555;DHT22;38455;52.710;6.502;2022-07-22T12:47:56;21.90;99.90
52555;DHT22;38455;52.710;6.502;2022-07-22T12:52:52;22.00;99.90
52555;DHT22;38455;52.710;6.502;2022-07-22T12:55:18;21.90;99.90
52555;DHT22;38455;52.710;6.502;2022-07-22T12:57:44;21.70;99.90
52555;DHT22;38455;52.710;6.502;2022-07-22T13:00:10;21.80;99.90
52555;DHT22;38455;52.710;6.502;2022-07-22T13:02:36;21.90;99.90
52555;DHT22;38455;52.710;6.502;2022-07-22T13:05:03;22.00;99.90
52555;DHT22;38455;52.710;6.502;2022-07-22T13:07:29;21.90;99.90
52555;DHT22;38455;52.710;6.502;2022-07-22T13:09:55;21.90;99.90
52555;DHT22;38455;52.710;6.502;2022-07-22T13:12:20;21.70;99.90
52555;DHT22;38455;52.710;6.502;2022-07-22T13:14:46;21.60;99.90
52555;DHT22;38455;52.710;6.502;2022-07-22T13:17:12;21.60;99.90
52555;DHT22;38455;52.710;6.502;2022-07-22T13:19:38;21.60;99.90
52555;DHT22;38455;52.710;6.502;2022-07-22T13:22:03;21.50;99.90
52555;DHT22;38455;52.710;6.502;2022-07-22T13:24:29;21.50;99.90
52555;DHT22;38455;52.710;6.502;2022-07-22T13:26:55;21.50;99.90
52555;DHT22;38455;52.710;6.502;2022-07-22T13:29:20;21.60;99.90
52555;DHT22;38455;52.710;6.502;2022-07-22T13:31:46;21.80;99.90
52555;DHT22;38455;52.710;6.502;2022-07-22T13:34:11;21.70;99.90
52555;DHT22;38455;52.710;6.502;2022-07-22T13:36:37;21.60;99.90
52555;DHT22;38455;52.710;6.502;2022-07-22T13:39:03;21.60;99.90
52555;DHT22;38455;52.710;6.502;2022-07-22T13:41:30;21.60;99.90
52555;DHT22;38455;52.710;6.502;2022-07-22T13:43:56;21.70;99.90
52555;DHT22;38455;52.710;6.502;2022-07-22T13:46:23;21.80;99.90
52555;DHT22;38455;52.710;6.502;2022-07-22T13:48:48;22.00;99.90
52555;DHT22;38455;52.710;6.502;2022-07-22T13:51:14;22.00;99.90
52555;DHT22;38455;52.710;6.502;2022-07-22T13:53:41;21.90;99.90
52555;DHT22;38455;52.710;6.502;2022-07-22T13:56:09;22.00;99.90
52555;DHT22;38455;52.710;6.502;2022-07-22T13:58:35;22.00;99.90
52555;DHT22;38455;52.710;6.502;2022-07-22T14:01:01;22.10;99.90
52555;DHT22;38455;52.710;6.502;2022-07-22T14:03:27;22.10;99.90
52555;DHT22;38455;52.710;6.502;2022-07-22T14:05:54;22.00;99.90
52555;DHT22;38455;52.710;6.502;2022-07-22T14:08:19;22.10;99.90
52555;DHT22;38455;52.710;6.502;2022-07-22T14:10:45;22.10;99.90
52555;DHT22;38455;52.710;6.502;2022-07-22T14:13:11;22.00;99.90
52555;DHT22;38455;52.710;6.502;2022-07-22T14:15:37;21.90;99.90
52555;DHT22;38455;52.710;6.502;2022-07-22T14:18:02;21.70;99.90
52555;DHT22;38455;52.710;6.502;2022-07-22T14:20:30;21.50;99.90
52555;DHT22;38455;52.710;6.502;2022-07-22T14:22:57;21.50;99.90
52555;DHT22;38455;52.710;6.502;2022-07-22T14:25:22;21.60;99.90
52555;DHT22;38455;52.710;6.502;2022-07-22T14:27:49;21.70;99.90
52555;DHT22;38455;52.710;6.502;2022-07-22T14:30:15;21.80;99.90
52555;DHT22;38455;52.710;6.502;2022-07-22T14:32:40;21.80;99.90
52555;DHT22;38455;52.710;6.502;2022-07-22T14:35:06;21.70;99.90
52555;DHT22;38455;52.710;6.502;2022-07-22T14:37:32;21.60;99.90
52555;DHT22;38455;52.710;6.502;2022-07-22T14:39:58;21.60;99.90
52555;DHT22;38455;52.710;6.502;2022-07-22T14:42:24;21.70;99.90
52555;DHT22;38455;52.710;6.502;2022-07-22T14:44:50;21.70;99.90
52555;DHT22;38455;52.710;6.502;2022-07-22T14:47:15;21.70;99.90
52555;DHT22;38455;52.710;6.502;2022-07-22T14:49:41;21.70;99.90
52555;DHT22;38455;52.710;6.502;2022-07-22T14:52:07;21.70;99.90
52555;DHT22;38455;52.710;6.502;2022-07-22T14:54:32;21.80;99.90
52555;DHT22;38455;52.710;6.502;2022-07-22T14:56:58;21.80;99.90
52555;DHT22;38455;52.710;6.502;2022-07-22T14:59:24;21.80;99.90
52555;DHT22;38455;52.710;6.502;2022-07-22T15:01:51;21.70;99.90
52555;DHT22;38455;52.710;6.502;2022-07-22T15:04:17;21.70;99.90
52555;DHT22;38455;52.710;6.502;2022-07-22T15:06:44;21.50;99.90
52555;DHT22;38455;52.710;6.502;2022-07-22T15:09:10;21.40;99.90
52555;DHT22;38455;52.710;6.502;2022-07-22T15:11:35;21.30;99.90
52555;DHT22;38455;52.710;6.502;2022-07-22T15:14:01;21.10;99.90
52555;DHT22;38455;52.710;6.502;2022-07-22T15:16:27;21.00;99.90
52555;DHT22;38455;52.710;6.502;2022-07-22T15:18:53;20.80;99.90
52555;DHT22;38455;52.710;6.502;2022-07-22T15:21:18;20.80;99.90
52555;DHT22;38455;52.710;6.502;2022-07-22T15:23:44;20.70;99.90
52555;DHT22;38455;52.710;6.502;2022-07-22T15:26:10;20.60;99.90
52555;DHT22;38455;52.710;6.502;2022-07-22T15:28:35;20.60;99.90
52555;DHT22;38455;52.710;6.502;2022-07-22T15:31:03;20.50;99.90
52555;DHT22;38455;52.710;6.502;2022-07-22T15:33:30;20.40;99.90
52555;DHT22;38455;52.710;6.502;2022-07-22T15:35:56;20.40;99.90
52555;DHT22;38455;52.710;6.502;2022-07-22T15:38:21;20.40;99.90
52555;DHT22;38455;52.710;6.502;2022-07-22T15:40:47;20.40;99.90
52555;DHT22;38455;52.710;6.502;2022-07-22T15:43:13;20.40;99.90